Time;durP1;ratioP1;P1;durP2;ratioP2;P2;SDS_P1;SDS_P2;PMS_P1;PMS_P2;Temp;Humidity;BMP_temperature;BMP_pressure;BME280_temperature;BME280_humidity;BME280_pressure;Samples;Min_cycle;Max_cycle;Signal;HPM_P1;HPM_P2
2021/05/08 00:01:34;;;;;;;12.60;6.10;;;;;;;;;;5020649;28;20022;-83
2021/05/08 00:03:59;;;;;;;10.83;6.17;;;;;;;;;;5023340;28;20037;-83
2021/05/08 00:06:25;;;;;;;10.40;6.07;;;;;;;;;;5020542;28;20022;-83
2021/05/08 00:08:50;;;;;;;12.60;6.50;;;;;;;;;;5020358;28;20557;-83
2021/05/08 00:11:15;;;;;;;12.43;6.63;;;;;;;;;;5018003;28;20379;-83
2021/05/08 00:13:40;;;;;;;12.73;7.10;;;;;;;;;;5019850;28;20033;-83
2021/05/08 00:16:06;;;;;;;14.50;7.33;;;;;;;;;;5023236;28;20022;-83
2021/05/08 00:18:31;;;;;;;12.17;7.27;;;;;;;;;;5026487;28;20013;-83
2021/05/08 00:20:56;;;;;;;15.53;7.43;;;;;;;;;;5013343;28;20357;-83
2021/05/08 00:23:21;;;;;;;16.83;7.70;;;;;;;;;;5023897;28;20025;-83
2021/05/08 00:25:47;;;;;;;13.77;8.00;;;;;;;;;;5015265;28;20049;-83
2021/05/08 00:28:12;;;;;;;15.07;8.77;;;;;;;;;;5010573;28;20029;-83
2021/05/08 00:30:37;;;;;;;12.77;7.73;;;;;;;;;;5020673;28;20552;-83
2021/05/08 00:33:02;;;;;;;17.97;7.87;;;;;;;;;;5011989;28;20049;-83
2021/05/08 00:35:28;;;;;;;14.67;9.00;;;;;;;;;;5018146;28;20022;-83
2021/05/08 00:37:53;;;;;;;17.33;9.17;;;;;;;;;;5018767;28;20116;-83
2021/05/08 00:40:18;;;;;;;19.17;8.80;;;;;;;;;;5011819;28;20022;-83
2021/05/08 00:42:43;;;;;;;15.57;8.70;;;;;;;;;;5011613;28;20459;-83
2021/05/08 00:45:09;;;;;;;17.00;8.87;;;;;;;;;;5013501;28;20026;-83
2021/05/08 00:47:42;;;;;;;17.00;9.30;;;;;;;;;;5017513;28;20021;-83
2021/05/08 00:50:08;;;;;;;18.60;9.80;;;;;;;;;;5018151;28;20039;-83
2021/05/08 00:52:33;;;;;;;17.47;9.27;;;;;;;;;;5016951;28;20120;-83
2021/05/08 00:54:58;;;;;;;17.00;10.17;;;;;;;;;;5012768;28;20100;-83
2021/05/08 00:57:23;;;;;;;16.83;10.00;;;;;;;;;;5020701;28;20451;-83
2021/05/08 00:59:48;;;;;;;16.00;9.77;;;;;;;;;;5014284;28;20075;-83
2021/05/08 01:02:14;;;;;;;21.03;10.67;;;;;;;;;;5018923;28;20383;-83
2021/05/08 01:04:39;;;;;;;16.67;10.17;;;;;;;;;;5012686;28;20057;-83
2021/05/08 01:07:04;;;;;;;16.87;9.90;;;;;;;;;;5018990;28;20037;-83
2021/05/08 01:09:30;;;;;;;19.73;10.60;;;;;;;;;;5011174;28;20457;-83
2021/05/08 01:11:55;;;;;;;17.43;10.27;;;;;;;;;;5010138;28;20585;-83
2021/05/08 01:14:21;;;;;;;17.07;10.53;;;;;;;;;;5012652;28;20067;-83
2021/05/08 01:16:46;;;;;;;19.20;9.73;;;;;;;;;;5018738;28;20105;-83
2021/05/08 01:19:14;;;;;;;18.13;10.63;;;;;;;;;;5020220;28;20035;-83
2021/05/08 01:21:39;;;;;;;18.97;10.27;;;;;;;;;;5023483;28;20073;-83
2021/05/08 01:24:05;;;;;;;20.37;11.47;;;;;;;;;;5015687;28;20113;-83
2021/05/08 01:26:30;;;;;;;18.30;10.77;;;;;;;;;;5016138;28;20033;-83
2021/05/08 01:28:55;;;;;;;18.10;11.10;;;;;;;;;;5016790;28;20037;-83
2021/05/08 01:31:20;;;;;;;18.50;10.33;;;;;;;;;;5018748;28;20030;-83
2021/05/08 01:33:46;;;;;;;19.87;10.63;;;;;;;;;;5009800;28;20026;-83
2021/05/08 01:36:11;;;;;;;20.53;11.13;;;;;;;;;;5018396;28;20022;-83
2021/05/08 01:38:36;;;;;;;24.10;11.53;;;;;;;;;;5010099;28;20021;-83
2021/05/08 01:41:03;;;;;;;22.17;11.97;;;;;;;;;;5016970;28;20033;-83
2021/05/08 01:43:28;;;;;;;19.00;10.70;;;;;;;;;;5009612;28;20022;-83
2021/05/08 01:45:54;;;;;;;20.63;11.00;;;;;;;;;;5020771;28;20513;-83
2021/05/08 01:48:19;;;;;;;18.07;11.43;;;;;;;;;;5019919;28;20029;-83
2021/05/08 01:50:45;;;;;;;19.70;11.70;;;;;;;;;;5021416;28;20073;-83
2021/05/08 01:53:10;;;;;;;20.80;11.00;;;;;;;;;;5018703;28;20128;-83
2021/05/08 01:55:35;;;;;;;18.87;11.43;;;;;;;;;;5013588;28;20098;-83
2021/05/08 01:58:00;;;;;;;18.60;10.97;;;;;;;;;;5012553;28;20026;-83
2021/05/08 02:00:25;;;;;;;20.67;11.67;;;;;;;;;;5017054;28;20025;-83
2021/05/08 02:02:52;;;;;;;18.90;10.88;;;;;;;;;;5015469;28;20022;-83
2021/05/08 02:05:18;;;;;;;20.23;11.00;;;;;;;;;;5010718;28;20061;-83
2021/05/08 02:07:43;;;;;;;18.43;10.50;;;;;;;;;;5015261;28;20045;-84
2021/05/08 02:10:09;;;;;;;22.90;11.47;;;;;;;;;;5008519;28;20040;-83
2021/05/08 02:12:37;;;;;;;17.97;10.93;;;;;;;;;;5008755;28;20026;-83
2021/05/08 02:15:03;;;;;;;23.20;12.27;;;;;;;;;;5016499;28;20068;-83
2021/05/08 02:17:28;;;;;;;23.53;12.37;;;;;;;;;;5013179;28;20045;-83
2021/05/08 02:19:53;;;;;;;24.07;13.47;;;;;;;;;;5020003;28;20025;-83
2021/05/08 02:22:19;;;;;;;24.10;13.10;;;;;;;;;;5019510;28;20436;-83
2021/05/08 02:24:44;;;;;;;20.17;12.37;;;;;;;;;;5015463;28;20041;-83
2021/05/08 02:27:09;;;;;;;25.20;11.50;;;;;;;;;;5016721;28;20472;-83
2021/05/08 02:29:34;;;;;;;19.27;11.27;;;;;;;;;;5009082;28;20377;-83
2021/05/08 02:32:00;;;;;;;17.87;11.33;;;;;;;;;;5015169;28;20021;-83
2021/05/08 02:34:25;;;;;;;19.03;11.13;;;;;;;;;;5012520;28;20026;-83
2021/05/08 02:36:50;;;;;;;16.90;10.53;;;;;;;;;;5020109;28;20025;-83
2021/05/08 02:39:15;;;;;;;22.90;11.17;;;;;;;;;;5021238;28;20030;-83
2021/05/08 02:41:40;;;;;;;18.70;11.33;;;;;;;;;;5013359;28;20388;-83
2021/05/08 02:44:05;;;;;;;17.93;10.63;;;;;;;;;;5015722;28;20025;-84
2021/05/08 02:46:31;;;;;;;16.13;11.13;;;;;;;;;;5011377;28;20022;-83
2021/05/08 02:48:56;;;;;;;21.33;11.57;;;;;;;;;;5023659;28;20030;-83
2021/05/08 02:51:21;;;;;;;21.87;10.97;;;;;;;;;;5011940;28;20361;-83
2021/05/08 02:53:46;;;;;;;20.30;10.60;;;;;;;;;;5013151;28;20101;-83
2021/05/08 02:56:11;;;;;;;16.23;10.70;;;;;;;;;;5014454;28;20117;-83
2021/05/08 02:58:37;;;;;;;23.07;10.97;;;;;;;;;;5016078;28;20017;-83
2021/05/08 03:01:02;;;;;;;19.10;10.83;;;;;;;;;;5012494;28;20014;-83
2021/05/08 03:03:27;;;;;;;18.60;11.10;;;;;;;;;;5008917;28;20033;-83
2021/05/08 03:05:53;;;;;;;19.13;10.60;;;;;;;;;;5018736;28;20022;-83
2021/05/08 03:08:19;;;;;;;20.03;10.77;;;;;;;;;;5008276;28;20385;-83
2021/05/08 03:10:44;;;;;;;17.87;10.73;;;;;;;;;;5020134;28;20028;-83
2021/05/08 03:13:10;;;;;;;18.13;10.43;;;;;;;;;;5020544;28;20025;-83
2021/05/08 03:15:35;;;;;;;18.70;10.30;;;;;;;;;;5020770;28;20098;-82
2021/05/08 03:18:00;;;;;;;16.17;10.70;;;;;;;;;;5012918;28;20037;-83
2021/05/08 03:20:25;;;;;;;20.13;11.80;;;;;;;;;;5016157;28;20024;-83
2021/05/08 03:22:50;;;;;;;19.40;10.70;;;;;;;;;;5022680;28;20480;-83
2021/05/08 03:25:16;;;;;;;20.57;11.43;;;;;;;;;;5016296;28;20030;-83
2021/05/08 03:27:41;;;;;;;21.80;11.57;;;;;;;;;;5019171;28;20018;-83
2021/05/08 03:30:06;;;;;;;17.97;9.97;;;;;;;;;;5016898;28;20021;-83
2021/05/08 03:32:32;;;;;;;19.00;10.60;;;;;;;;;;5016506;28;20075;-83
2021/05/08 03:34:57;;;;;;;20.53;11.07;;;;;;;;;;5012969;28;20014;-83
2021/05/08 03:37:22;;;;;;;20.17;10.87;;;;;;;;;;5023458;28;20100;-83
2021/05/08 03:39:47;;;;;;;20.27;10.33;;;;;;;;;;5021260;28;20029;-83
2021/05/08 03:42:12;;;;;;;24.27;10.70;;;;;;;;;;5024356;28;20026;-82
2021/05/08 03:44:38;;;;;;;20.60;10.80;;;;;;;;;;5013572;28;20094;-83
2021/05/08 03:47:03;;;;;;;18.07;10.37;;;;;;;;;;5022679;28;20116;-83
2021/05/08 03:49:28;;;;;;;17.13;10.43;;;;;;;;;;5014527;28;20021;-83
2021/05/08 03:51:58;;;;;;;19.10;10.80;;;;;;;;;;5013709;28;20112;-83
2021/05/08 03:54:24;;;;;;;22.33;10.27;;;;;;;;;;5020305;28;20136;-83
2021/05/08 03:56:49;;;;;;;19.47;11.23;;;;;;;;;;5021231;28;20168;-83
2021/05/08 03:59:14;;;;;;;20.07;10.30;;;;;;;;;;5018196;28;20086;-83
2021/05/08 04:01:39;;;;;;;17.83;10.23;;;;;;;;;;5017465;28;20024;-82
2021/05/08 04:04:05;;;;;;;17.60;10.47;;;;;;;;;;5015801;28;20026;-83
2021/05/08 04:06:30;;;;;;;15.97;10.70;;;;;;;;;;5022803;28;20874;-83
2021/05/08 04:08:55;;;;;;;18.87;10.13;;;;;;;;;;5013223;28;20022;-83
2021/05/08 04:11:20;;;;;;;16.77;9.93;;;;;;;;;;5018570;28;20041;-83
2021/05/08 04:13:45;;;;;;;17.50;10.40;;;;;;;;;;5015963;28;20098;-83
2021/05/08 04:16:11;;;;;;;16.67;9.73;;;;;;;;;;5023672;28;20025;-83
2021/05/08 04:18:37;;;;;;;16.10;9.60;;;;;;;;;;5027355;28;20163;-83
2021/05/08 04:21:02;;;;;;;14.70;9.33;;;;;;;;;;5022303;28;20033;-83
2021/05/08 04:23:27;;;;;;;16.07;8.83;;;;;;;;;;5021745;28;20029;-83
2021/05/08 04:25:52;;;;;;;15.60;9.00;;;;;;;;;;5018759;28;20025;-83
2021/05/08 04:28:17;;;;;;;15.87;8.47;;;;;;;;;;5015116;28;20041;-83
2021/05/08 04:30:43;;;;;;;18.23;9.27;;;;;;;;;;5022977;28;20018;-83
2021/05/08 04:33:08;;;;;;;15.23;9.13;;;;;;;;;;5022082;28;20539;-83
2021/05/08 04:35:33;;;;;;;17.23;7.97;;;;;;;;;;5027670;28;20021;-83
2021/05/08 04:38:02;;;;;;;12.23;7.13;;;;;;;;;;5020727;28;20025;-83
2021/05/08 04:40:27;;;;;;;17.33;7.40;;;;;;;;;;5022032;28;20031;-83
2021/05/08 04:42:52;;;;;;;13.13;7.77;;;;;;;;;;5010412;28;20107;-83
2021/05/08 04:45:17;;;;;;;16.43;7.27;;;;;;;;;;5023230;28;20533;-83
2021/05/08 04:47:43;;;;;;;14.40;7.53;;;;;;;;;;5014217;28;20025;-83
2021/05/08 04:50:08;;;;;;;14.33;7.13;;;;;;;;;;5010106;28;20131;-83
2021/05/08 04:52:33;;;;;;;14.57;7.37;;;;;;;;;;5011460;28;20033;-83
2021/05/08 04:54:59;;;;;;;13.37;7.30;;;;;;;;;;5017405;28;20026;-83
2021/05/08 04:57:24;;;;;;;10.63;6.53;;;;;;;;;;5018866;28;20072;-84
2021/05/08 04:59:49;;;;;;;12.67;7.30;;;;;;;;;;5019826;28;20018;-83
2021/05/08 05:02:14;;;;;;;10.50;5.90;;;;;;;;;;5019220;28;20211;-83
2021/05/08 05:04:39;;;;;;;14.40;6.70;;;;;;;;;;5022528;28;20021;-83
2021/05/08 05:07:05;;;;;;;17.07;6.73;;;;;;;;;;5011677;28;20406;-82
2021/05/08 05:09:32;;;;;;;11.13;5.40;;;;;;;;;;5019716;28;20711;-82
2021/05/08 05:11:57;;;;;;;13.15;5.50;;;;;;;;;;5014948;28;20010;-83
2021/05/08 05:14:23;;;;;;;12.27;5.65;;;;;;;;;;5016623;28;20034;-82
2021/05/08 05:16:48;;;;;;;11.55;5.47;;;;;;;;;;5019698;28;20045;-83
2021/05/08 05:19:13;;;;;;;8.32;5.03;;;;;;;;;;5017170;28;20073;-82
2021/05/08 05:21:38;;;;;;;8.50;5.25;;;;;;;;;;5009777;28;20357;-83
2021/05/08 05:24:04;;;;;;;12.65;5.82;;;;;;;;;;5013188;28;20028;-82
2021/05/08 05:26:29;;;;;;;10.82;4.65;;;;;;;;;;5009710;28;20102;-82
2021/05/08 05:28:54;;;;;;;8.25;3.97;;;;;;;;;;5013469;28;20029;-82
2021/05/08 05:31:20;;;;;;;10.82;4.63;;;;;;;;;;5009302;28;20097;-83
2021/05/08 05:33:45;;;;;;;9.85;5.03;;;;;;;;;;5022263;28;20422;-83
2021/05/08 05:36:11;;;;;;;7.70;4.72;;;;;;;;;;5012011;28;20037;-82
2021/05/08 05:38:36;;;;;;;11.05;5.10;;;;;;;;;;5020593;28;20017;-82
2021/05/08 05:41:01;;;;;;;10.73;5.47;;;;;;;;;;5021687;28;20029;-82
2021/05/08 05:43:26;;;;;;;7.07;3.63;;;;;;;;;;5021670;28;20487;-82
2021/05/08 05:45:52;;;;;;;8.45;4.20;;;;;;;;;;5020379;28;20042;-82
2021/05/08 05:48:17;;;;;;;7.25;4.18;;;;;;;;;;5016501;28;20024;-82
2021/05/08 05:50:43;;;;;;;6.72;3.83;;;;;;;;;;5013559;28;20107;-82
2021/05/08 05:53:08;;;;;;;7.95;4.50;;;;;;;;;;5012988;28;20029;-82
2021/05/08 05:55:34;;;;;;;9.18;4.70;;;;;;;;;;5024064;28;20352;-82
2021/05/08 05:57:59;;;;;;;9.18;4.28;;;;;;;;;;5014412;28;20029;-82
2021/05/08 06:00:25;;;;;;;7.32;3.75;;;;;;;;;;5018843;28;20103;-82
2021/05/08 06:02:50;;;;;;;9.35;4.07;;;;;;;;;;5016570;28;20046;-82
2021/05/08 06:05:15;;;;;;;8.13;4.22;;;;;;;;;;5008632;28;20533;-83
2021/05/08 06:07:41;;;;;;;8.95;4.65;;;;;;;;;;5013941;28;20029;-82
2021/05/08 06:10:07;;;;;;;8.02;4.97;;;;;;;;;;5012614;28;20041;-82
2021/05/08 06:12:33;;;;;;;9.65;3.80;;;;;;;;;;5010916;28;20098;-82
2021/05/08 06:14:58;;;;;;;12.55;3.85;;;;;;;;;;5042497;28;20021;-82
2021/05/08 06:17:23;;;;;;;5.68;3.58;;;;;;;;;;5019074;28;20028;-82
2021/05/08 06:19:48;;;;;;;10.20;3.15;;;;;;;;;;5010148;28;20026;-82
2021/05/08 06:22:15;;;;;;;7.35;3.50;;;;;;;;;;5024551;28;20060;-82
2021/05/08 06:24:40;;;;;;;7.18;3.47;;;;;;;;;;5022579;28;20472;-82
2021/05/08 06:27:05;;;;;;;7.00;3.33;;;;;;;;;;5022388;28;20048;-82
2021/05/08 06:29:31;;;;;;;7.75;3.83;;;;;;;;;;5011649;28;20034;-82
2021/05/08 06:31:56;;;;;;;6.68;3.67;;;;;;;;;;5023843;28;20018;-82
2021/05/08 06:34:21;;;;;;;9.70;3.63;;;;;;;;;;5008562;28;20030;-82
2021/05/08 06:36:46;;;;;;;7.05;3.38;;;;;;;;;;5019196;28;20018;-82
2021/05/08 06:39:12;;;;;;;8.82;3.13;;;;;;;;;;5041115;28;20385;-83
2021/05/08 06:41:37;;;;;;;6.57;3.08;;;;;;;;;;5008562;28;20030;-82
2021/05/08 06:44:03;;;;;;;5.43;3.20;;;;;;;;;;5008601;28;20033;-82
2021/05/08 06:46:28;;;;;;;10.90;3.47;;;;;;;;;;5008199;28;20014;-82
2021/05/08 06:48:53;;;;;;;8.10;3.40;;;;;;;;;;5010714;28;20029;-83
2021/05/08 06:51:19;;;;;;;7.68;4.03;;;;;;;;;;5013138;28;20026;-82
2021/05/08 06:53:44;;;;;;;7.65;3.08;;;;;;;;;;5015954;28;20063;-82
2021/05/08 06:56:09;;;;;;;5.28;2.88;;;;;;;;;;5007493;28;20034;-82
2021/05/08 06:58:34;;;;;;;9.77;3.60;;;;;;;;;;5029091;28;20532;-82
2021/05/08 07:01:00;;;;;;;6.97;2.72;;;;;;;;;;5015233;28;20101;-82
2021/05/08 07:03:25;;;;;;;6.30;2.90;;;;;;;;;;5016207;28;20032;-82
2021/05/08 07:05:50;;;;;;;10.65;2.88;;;;;;;;;;5029583;28;20041;-82
2021/05/08 07:08:15;;;;;;;5.85;2.90;;;;;;;;;;5011962;28;20050;-81
2021/05/08 07:10:48;;;;;;;7.10;3.28;;;;;;;;;;5025916;28;20078;-82
2021/05/08 07:13:13;;;;;;;;;;;;;;;;;;5039842;28;20027;-82
2021/05/08 07:15:38;;;;;;;7.28;3.14;;;;;;;;;;5016622;28;19916;-82
2021/05/08 07:18:04;;;;;;;8.00;3.13;;;;;;;;;;5021885;28;20022;-82
2021/05/08 07:20:30;;;;;;;5.90;3.20;;;;;;;;;;5017942;28;20065;-82
2021/05/08 07:22:55;;;;;;;7.22;3.00;;;;;;;;;;5017145;28;20084;-82
2021/05/08 07:25:21;;;;;;;6.40;3.45;;;;;;;;;;5020214;28;20026;-82
2021/05/08 07:27:46;;;;;;;8.73;3.33;;;;;;;;;;5027466;28;20030;-82
2021/05/08 07:30:11;;;;;;;12.55;3.95;;;;;;;;;;5027556;28;20108;-82
2021/05/08 07:32:38;;;;;;;7.32;3.00;;;;;;;;;;5008743;28;20072;-82
2021/05/08 07:35:03;;;;;;;9.93;3.20;;;;;;;;;;5018442;28;20108;-82
2021/05/08 07:37:29;;;;;;;6.63;2.83;;;;;;;;;;5017571;28;20417;-82
2021/05/08 07:39:54;;;;;;;5.70;3.28;;;;;;;;;;5024392;28;20014;-82
2021/05/08 07:42:19;;;;;;;6.40;2.85;;;;;;;;;;5009601;28;20026;-81
2021/05/08 07:44:44;;;;;;;13.23;3.53;;;;;;;;;;5028820;28;20014;-82
2021/05/08 07:47:13;;;;;;;6.13;2.38;;;;;;;;;;5007807;28;20018;-82
2021/05/08 07:49:38;;;;;;;5.53;2.38;;;;;;;;;;5019566;28;20014;-82
2021/05/08 07:52:03;;;;;;;7.18;2.70;;;;;;;;;;5007825;28;20060;-82
2021/05/08 07:54:29;;;;;;;7.05;3.10;;;;;;;;;;5008352;28;20029;-82
2021/05/08 07:56:54;;;;;;;4.00;2.25;;;;;;;;;;5020470;28;20353;-82
2021/05/08 07:59:19;;;;;;;6.35;2.63;;;;;;;;;;5025589;28;20093;-82
2021/05/08 08:01:44;;;;;;;5.15;2.55;;;;;;;;;;5010471;28;20017;-82
2021/05/08 08:04:09;;;;;;;6.47;2.50;;;;;;;;;;5018962;28;20026;-82
2021/05/08 08:06:35;;;;;;;7.47;2.45;;;;;;;;;;5041184;28;20017;-82
2021/05/08 08:09:00;;;;;;;10.05;3.05;;;;;;;;;;5029561;28;20182;-82
2021/05/08 08:11:25;;;;;;;9.70;3.45;;;;;;;;;;5043750;28;20026;-82
2021/05/08 08:13:50;;;;;;;6.22;2.53;;;;;;;;;;5043262;28;20021;-82
2021/05/08 08:16:15;;;;;;;10.93;3.03;;;;;;;;;;5026392;28;20039;-82
2021/05/08 08:18:40;;;;;;;9.75;3.08;;;;;;;;;;5037561;28;20030;-82
2021/05/08 08:21:06;;;;;;;5.93;2.80;;;;;;;;;;5028176;28;20049;-82
2021/05/08 08:23:31;;;;;;;5.80;2.67;;;;;;;;;;5041069;28;20032;-82
2021/05/08 08:25:59;;;;;;;10.75;3.50;;;;;;;;;;5056469;28;20094;-82
2021/05/08 08:28:24;;;;;;;7.80;2.63;;;;;;;;;;5044125;28;20404;-82
2021/05/08 08:30:50;;;;;;;6.95;2.78;;;;;;;;;;5021182;28;20114;-82
2021/05/08 08:33:15;;;;;;;6.88;2.38;;;;;;;;;;5038728;28;20040;-82
2021/05/08 08:35:40;;;;;;;9.27;3.40;;;;;;;;;;5066163;28;20396;-82
2021/05/08 08:38:06;;;;;;;5.55;2.45;;;;;;;;;;5065566;28;20454;-82
2021/05/08 08:40:31;;;;;;;4.72;1.60;;;;;;;;;;5041036;28;20034;-82
2021/05/08 08:42:57;;;;;;;2.33;1.42;;;;;;;;;;5027425;28;20476;-82
2021/05/08 08:45:22;;;;;;;5.53;3.13;;;;;;;;;;5059540;28;20089;-82
2021/05/08 08:47:47;;;;;;;9.85;2.65;;;;;;;;;;5009578;28;20029;-82
2021/05/08 08:50:12;;;;;;;6.47;2.75;;;;;;;;;;5011731;28;20030;-82
2021/05/08 08:52:38;;;;;;;5.60;2.22;;;;;;;;;;5011082;28;20450;-82
2021/05/08 08:55:05;;;;;;;5.38;2.50;;;;;;;;;;5010188;28;20602;-82
2021/05/08 08:57:34;;;;;;;4.60;2.38;;;;;;;;;;5009725;28;20041;-82
2021/05/08 09:00:00;;;;;;;8.63;3.13;;;;;;;;;;5020353;28;20053;-82
2021/05/08 09:02:26;;;;;;;6.57;2.53;;;;;;;;;;5017728;28;20068;-82
2021/05/08 09:04:51;;;;;;;3.47;1.38;;;;;;;;;;5010067;28;20029;-82
2021/05/08 09:07:17;;;;;;;16.65;3.22;;;;;;;;;;5017948;28;20380;-82
2021/05/08 09:09:43;;;;;;;8.32;2.83;;;;;;;;;;5012672;28;20116;-82
2021/05/08 09:12:12;;;;;;;7.53;3.17;;;;;;;;;;5011970;28;20487;-81
2021/05/08 09:14:38;;;;;;;6.53;2.85;;;;;;;;;;5011595;28;20033;-82
2021/05/08 09:17:21;;;;;;;6.65;2.53;;;;;;;;;;5014337;28;20022;-82
2021/05/08 09:20:01;;;;;;;8.50;1.80;;;;;;;;;;5025849;28;20022;-82
2021/05/08 09:22:36;;;;;;;5.97;2.28;;;;;;;;;;5009747;28;20022;-82
2021/05/08 09:25:12;;;;;;;3.75;2.20;;;;;;;;;;5004003;28;20034;-82
2021/05/08 09:27:51;;;;;;;5.13;2.13;;;;;;;;;;5017197;28;20022;-81
2021/05/08 09:30:21;;;;;;;7.10;2.58;;;;;;;;;;5011536;28;20040;-82
2021/05/08 09:32:56;;;;;;;4.85;2.35;;;;;;;;;;5020088;28;20022;-82
2021/05/08 09:35:22;;;;;;;7.35;2.78;;;;;;;;;;5016060;28;20032;-82
2021/05/08 09:37:49;;;;;;;4.97;2.50;;;;;;;;;;5010375;28;20026;-82
2021/05/08 09:40:19;;;;;;;3.45;1.85;;;;;;;;;;5016873;28;20054;-82
2021/05/08 09:42:45;;;;;;;4.75;2.00;;;;;;;;;;5022994;28;20029;-82
2021/05/08 09:45:11;;;;;;;6.25;2.67;;;;;;;;;;5017684;28;20071;-82
2021/05/08 09:47:36;;;;;;;10.60;3.03;;;;;;;;;;5017213;28;20033;-82
2021/05/08 09:50:02;;;;;;;6.95;3.08;;;;;;;;;;5010825;28;20026;-82
2021/05/08 09:52:39;;;;;;;11.25;3.88;;;;;;;;;;5009235;28;20052;-82
2021/05/08 09:55:04;;;;;;;4.05;2.20;;;;;;;;;;5009775;28;20025;-82
2021/05/08 09:57:29;;;;;;;7.30;2.03;;;;;;;;;;5014937;28;20022;-82
2021/05/08 09:59:55;;;;;;;7.20;2.42;;;;;;;;;;5040331;28;20445;-82
2021/05/08 10:02:20;;;;;;;3.58;2.15;;;;;;;;;;5019887;28;20096;-82
2021/05/08 10:04:47;;;;;;;6.60;2.70;;;;;;;;;;5016308;28;20028;-82
2021/05/08 10:07:20;;;;;;;5.65;2.10;;;;;;;;;;5003072;28;20018;-82
2021/05/08 10:09:46;;;;;;;5.00;2.47;;;;;;;;;;5031114;28;20025;-82
2021/05/08 10:12:12;;;;;;;6.60;2.40;;;;;;;;;;5011902;28;20404;-82
2021/05/08 10:14:39;;;;;;;5.68;2.30;;;;;;;;;;5009675;28;20021;-82
2021/05/08 10:17:04;;;;;;;3.92;2.05;;;;;;;;;;5009646;28;20075;-82
2021/05/08 10:19:30;;;;;;;3.70;1.90;;;;;;;;;;5010858;28;20018;-82
2021/05/08 10:21:56;;;;;;;6.25;2.67;;;;;;;;;;5016235;28;20060;-82
2021/05/08 10:24:22;;;;;;;5.28;2.50;;;;;;;;;;5017325;28;20025;-82
2021/05/08 10:26:48;;;;;;;4.38;2.65;;;;;;;;;;5029971;28;20071;-82
2021/05/08 10:29:14;;;;;;;6.53;2.55;;;;;;;;;;5028569;28;20045;-82
2021/05/08 10:31:39;;;;;;;3.35;2.30;;;;;;;;;;5015931;28;20072;-82
2021/05/08 10:34:04;;;;;;;6.88;2.92;;;;;;;;;;5015954;28;20025;-82
2021/05/08 10:36:46;;;;;;;5.82;2.13;;;;;;;;;;5017515;28;20025;-82
2021/05/08 10:39:11;;;;;;;5.97;2.67;;;;;;;;;;5013708;28;20169;-82
2021/05/08 10:41:49;;;;;;;5.85;3.10;;;;;;;;;;5038631;28;20026;-82
2021/05/08 10:44:34;;;;;;;6.32;2.88;;;;;;;;;;5009728;28;20476;-81
2021/05/08 10:47:00;;;;;;;3.70;1.70;;;;;;;;;;5008554;28;20034;-82
2021/05/08 10:49:25;;;;;;;3.10;1.80;;;;;;;;;;5023170;28;20045;-81
2021/05/08 10:51:53;;;;;;;9.00;2.90;;;;;;;;;;5032413;28;20034;-82
2021/05/08 10:54:39;;;;;;;8.52;2.20;;;;;;;;;;5017862;28;20049;-82
2021/05/08 10:57:14;;;;;;;4.93;2.30;;;;;;;;;;5040418;28;20093;-82
2021/05/08 11:00:11;;;;;;;4.45;2.53;;;;;;;;;;5021277;28;20020;-82
2021/05/08 11:05:20;;;;;;;5.80;2.10;;;;;;;;;;5018906;28;20030;-82
2021/05/08 11:07:45;;;;;;;5.97;2.75;;;;;;;;;;5018543;28;20025;-82
2021/05/08 11:10:29;;;;;;;5.60;2.42;;;;;;;;;;5014985;28;20387;-82
2021/05/08 11:13:07;;;;;;;7.18;3.10;;;;;;;;;;5019623;28;20026;-82
2021/05/08 11:18:34;;;;;;;8.40;2.58;;;;;;;;;;5012892;28;20468;-82
2021/05/08 11:20:59;;;;;;;4.95;2.58;;;;;;;;;;5017983;28;20045;-82
2021/05/08 11:23:24;;;;;;;5.00;2.33;;;;;;;;;;5024056;28;20056;-82
2021/05/08 11:25:50;;;;;;;8.52;2.70;;;;;;;;;;5016040;28;20381;-81
2021/05/08 11:28:15;;;;;;;4.43;2.25;;;;;;;;;;5015937;28;20053;-82
2021/05/08 11:30:53;;;;;;;3.80;2.30;;;;;;;;;;5015163;28;20511;-82
2021/05/08 11:33:21;;;;;;;5.03;2.53;;;;;;;;;;5014315;28;20014;-82
2021/05/08 11:36:03;;;;;;;5.63;2.50;;;;;;;;;;5031666;28;20021;-81
2021/05/08 11:38:28;;;;;;;7.15;3.00;;;;;;;;;;5016139;28;20022;-82
2021/05/08 11:40:53;;;;;;;5.93;2.13;;;;;;;;;;5009146;28;20014;-82
2021/05/08 11:43:28;;;;;;;7.20;2.72;;;;;;;;;;5020071;28;20025;-81
2021/05/08 11:45:54;;;;;;;5.60;2.38;;;;;;;;;;5018963;28;20452;-81
2021/05/08 11:48:19;;;;;;;5.38;2.20;;;;;;;;;;5012545;28;20105;-82
2021/05/08 11:50:47;;;;;;;5.50;2.40;;;;;;;;;;5011529;28;20041;-82
2021/05/08 11:53:19;;;;;;;4.13;2.17;;;;;;;;;;5018947;28;20033;-82
2021/05/08 11:55:47;;;;;;;4.75;1.58;;;;;;;;;;5019614;28;20484;-82
2021/05/08 11:58:25;;;;;;;5.28;2.33;;;;;;;;;;5011350;28;20522;-81
2021/05/08 12:00:50;;;;;;;6.43;2.10;;;;;;;;;;5054992;28;20017;-81
2021/05/08 12:03:16;;;;;;;10.40;2.03;;;;;;;;;;5048283;28;20509;-82
2021/05/08 12:05:42;;;;;;;4.78;1.85;;;;;;;;;;5027333;28;20090;-82
2021/05/08 12:08:08;;;;;;;3.15;1.73;;;;;;;;;;5018825;28;20030;-81
2021/05/08 12:10:37;;;;;;;7.53;1.85;;;;;;;;;;5025241;28;20421;-82
2021/05/08 12:13:03;;;;;;;4.97;2.03;;;;;;;;;;5011293;28;20044;-82
2021/05/08 12:15:30;;;;;;;5.55;1.70;;;;;;;;;;5011333;28;20417;-81
2021/05/08 12:17:56;;;;;;;3.75;1.95;;;;;;;;;;5015441;28;20021;-82
2021/05/08 12:20:41;;;;;;;8.10;2.10;;;;;;;;;;5020827;28;20105;-82
2021/05/08 12:23:33;;;;;;;5.35;1.63;;;;;;;;;;5025318;28;20043;-81
2021/05/08 12:26:15;;;;;;;3.28;1.90;;;;;;;;;;5029799;28;20038;-82
2021/05/08 12:28:43;;;;;;;5.60;1.65;;;;;;;;;;5019097;28;20025;-83
2021/05/08 12:31:18;;;;;;;4.10;1.50;;;;;;;;;;5027615;28;20398;-82
2021/05/08 12:33:43;;;;;;;4.75;1.83;;;;;;;;;;5011810;28;20037;-82
2021/05/08 12:36:12;;;;;;;3.05;1.70;;;;;;;;;;5057361;28;20026;-81
2021/05/08 12:38:37;;;;;;;5.15;1.88;;;;;;;;;;5028278;28;20487;-82
2021/05/08 12:41:21;;;;;;;5.50;2.00;;;;;;;;;;5036902;28;20060;-82
2021/05/08 12:43:48;;;;;;;4.93;2.25;;;;;;;;;;5021456;28;20091;-82
2021/05/08 12:46:14;;;;;;;2.97;1.73;;;;;;;;;;5019143;28;20430;-82
2021/05/08 12:48:40;;;;;;;5.18;1.98;;;;;;;;;;5043221;28;20475;-82
2021/05/08 12:51:24;;;;;;;5.10;1.70;;;;;;;;;;5043266;28;20029;-82
2021/05/08 12:54:09;;;;;;;6.40;1.75;;;;;;;;;;5011343;28;20026;-82
2021/05/08 12:56:34;;;;;;;3.35;2.03;;;;;;;;;;5022758;28;20030;-82
2021/05/08 12:58:59;;;;;;;4.70;2.00;;;;;;;;;;5024398;28;20166;-82
2021/05/08 13:01:25;;;;;;;3.33;1.98;;;;;;;;;;5021026;28;20022;-82
2021/05/08 13:03:51;;;;;;;3.70;1.30;;;;;;;;;;5014812;28;20365;-82
2021/05/08 13:06:23;;;;;;;2.67;1.40;;;;;;;;;;5017550;28;20098;-82
2021/05/08 13:08:50;;;;;;;4.47;2.05;;;;;;;;;;5009357;28;20040;-82
2021/05/08 13:11:34;;;;;;;4.95;2.25;;;;;;;;;;5010732;28;20488;-81
2021/05/08 13:14:19;;;;;;;1.77;1.42;;;;;;;;;;5024273;27;20521;-82
2021/05/08 13:16:44;;;;;;;4.50;2.08;;;;;;;;;;5031645;28;20025;-82
2021/05/08 13:19:10;;;;;;;4.90;1.42;;;;;;;;;;5014801;28;20018;-82
2021/05/08 13:21:35;;;;;;;4.82;1.92;;;;;;;;;;5009936;28;20380;-82
2021/05/08 13:24:01;;;;;;;5.32;1.80;;;;;;;;;;5009928;28;20030;-82
2021/05/08 13:26:26;;;;;;;3.92;1.90;;;;;;;;;;5019561;28;20021;-82
2021/05/08 13:28:51;;;;;;;3.90;1.60;;;;;;;;;;5018719;28;20043;-82
2021/05/08 13:31:16;;;;;;;13.60;2.17;;;;;;;;;;5020890;28;20025;-82
2021/05/08 13:33:41;;;;;;;4.15;1.80;;;;;;;;;;5020873;28;20074;-82
2021/05/08 13:36:07;;;;;;;7.82;1.70;;;;;;;;;;5023120;28;20057;-82
2021/05/08 13:38:32;;;;;;;3.80;1.85;;;;;;;;;;5011654;28;20472;-82
2021/05/08 13:40:57;;;;;;;4.57;1.70;;;;;;;;;;5016599;28;20010;-82
2021/05/08 13:43:22;;;;;;;2.47;1.77;;;;;;;;;;5011091;28;20028;-82
2021/05/08 13:45:47;;;;;;;5.97;1.73;;;;;;;;;;5011002;28;20025;-82
2021/05/08 13:48:12;;;;;;;3.20;1.55;;;;;;;;;;5017794;28;20037;-82
2021/05/08 13:50:38;;;;;;;5.97;1.85;;;;;;;;;;5014113;28;20026;-82
2021/05/08 13:53:04;;;;;;;3.58;1.83;;;;;;;;;;5019250;28;20040;-82
2021/05/08 13:55:29;;;;;;;4.88;2.10;;;;;;;;;;5014157;28;20101;-82
2021/05/08 13:57:54;;;;;;;5.75;1.70;;;;;;;;;;5015183;28;20538;-82
2021/05/08 14:00:20;;;;;;;5.75;1.77;;;;;;;;;;5009892;28;20103;-83
2021/05/08 14:02:45;;;;;;;2.55;1.50;;;;;;;;;;5013034;28;20171;-82
2021/05/08 14:05:10;;;;;;;3.25;1.38;;;;;;;;;;5012081;28;20048;-82
2021/05/08 14:07:36;;;;;;;2.47;1.52;;;;;;;;;;5015306;28;20421;-82
2021/05/08 14:10:01;;;;;;;4.35;1.77;;;;;;;;;;5012216;28;20513;-83
2021/05/08 14:12:26;;;;;;;2.70;1.60;;;;;;;;;;5016590;28;20014;-82
2021/05/08 14:14:51;;;;;;;4.10;1.65;;;;;;;;;;5015525;28;20041;-82
2021/05/08 14:17:17;;;;;;;3.78;1.80;;;;;;;;;;5017265;28;20036;-82
2021/05/08 14:19:42;;;;;;;3.78;1.73;;;;;;;;;;5017582;28;20043;-82
2021/05/08 14:22:07;;;;;;;6.70;1.90;;;;;;;;;;5013665;28;20425;-82
2021/05/08 14:24:32;;;;;;;6.68;1.80;;;;;;;;;;5015923;28;20026;-82
2021/05/08 14:26:57;;;;;;;5.13;1.52;;;;;;;;;;5009051;28;20078;-82
2021/05/08 14:29:22;;;;;;;4.97;1.65;;;;;;;;;;5018368;28;20037;-82
2021/05/08 14:31:48;;;;;;;4.45;1.40;;;;;;;;;;5010286;28;20064;-82
2021/05/08 14:34:13;;;;;;;4.63;1.60;;;;;;;;;;5022781;28;20026;-82
2021/05/08 14:36:38;;;;;;;4.22;1.65;;;;;;;;;;5013228;28;20112;-82
2021/05/08 14:39:03;;;;;;;5.68;1.50;;;;;;;;;;5019714;28;20040;-82